Time;durP1;ratioP1;P1;durP2;ratioP2;P2;SDS_P1;SDS_P2;PMS_P1;PMS_P2;Temp;Humidity;BMP_temperature;BMP_pressure;BME280_temperature;BME280_humidity;BME280_pressure;Samples;Min_cycle;Max_cycle;Signal;HPM_P1;HPM_P2
2022/05/15 00:01:44;;;;;;;4.72;1.72;;;;;;;7.14;68.33;99673.48;1690024;82;20965;-61
2022/05/15 00:04:11;;;;;;;8.30;1.50;;;;;;;7.09;68.37;99678.02;1689625;82;21972;-61
2022/05/15 00:06:37;;;;;;;9.60;2.13;;;;;;;7.05;68.43;99675.11;1679974;83;20991;-60
2022/05/15 00:09:04;;;;;;;10.30;2.10;;;;;;;7.01;68.60;99677.42;1669783;84;20951;-61
2022/05/15 00:11:31;;;;;;;9.73;2.03;;;;;;;6.98;68.57;99677.52;1684225;83;20957;-61
2022/05/15 00:13:58;;;;;;;10.53;1.77;;;;;;;6.93;68.66;99679.80;1668270;84;20953;-61
2022/05/15 00:16:25;;;;;;;;;;;;;;;6.91;68.78;99671.66;1681746;83;21715;-61
2022/05/15 00:18:52;;;;;;;5.30;1.30;;;;;;;6.87;68.97;99668.33;1679302;84;20347;-60
2022/05/15 00:21:19;;;;;;;5.75;1.60;;;;;;;6.83;68.94;99669.31;1687591;84;21513;-61
2022/05/15 00:23:45;;;;;;;7.37;1.57;;;;;;;6.80;69.12;99669.42;1684450;84;21677;-60
2022/05/15 00:26:12;;;;;;;7.03;1.80;;;;;;;6.78;69.18;99671.23;1679794;84;20928;-61
2022/05/15 00:28:39;;;;;;;11.43;1.67;;;;;;;6.76;69.18;99670.43;1681627;84;21003;-61
2022/05/15 00:31:06;;;;;;;5.72;1.52;;;;;;;6.77;69.55;99666.92;1681508;84;21094;-61
2022/05/15 01:14:21;;;;;;;8.83;1.67;;;;;;;6.55;70.75;99682.78;1825771;77;21079;-59
2022/05/15 01:16:48;;;;;;;9.98;1.95;;;;;;;6.52;70.73;99676.39;1814316;77;21040;-59
2022/05/15 01:19:14;;;;;;;7.62;1.60;;;;;;;6.50;71.04;99679.90;1823267;76;21634;-60
2022/05/15 01:21:57;;;;;;;15.47;2.10;;;;;;;6.50;71.68;99683.79;1832041;76;21561;-60
2022/05/15 01:24:25;;;;;;;7.42;1.67;;;;;;;6.52;71.40;99685.47;1818869;76;21015;-61
2022/05/15 01:26:52;;;;;;;6.80;1.72;;;;;;;6.54;71.50;99687.58;1825366;76;21098;-61
2022/05/15 01:29:32;;;;;;;9.90;2.17;;;;;;;6.54;71.39;99686.28;1813273;77;21568;-61
2022/05/15 01:32:00;;;;;;;8.85;2.83;;;;;;;6.50;71.43;99687.68;1830643;76;21100;-61
2022/05/15 01:34:28;;;;;;;8.38;2.55;;;;;;;6.48;72.08;99689.46;1821389;76;20922;-61
2022/05/15 01:36:55;;;;;;;10.35;1.90;;;;;;;6.50;71.93;99692.02;1819271;77;21564;-62
2022/05/15 01:39:22;;;;;;;8.20;1.92;;;;;;;6.47;71.76;99690.38;1819000;77;21054;-61
2022/05/15 01:41:49;;;;;;;15.43;2.05;;;;;;;6.44;71.71;99696.95;1820096;77;20981;-61
2022/05/15 01:44:15;;;;;;;7.47;1.90;;;;;;;6.43;71.85;99700.42;1819690;77;21494;-61
2022/05/15 01:46:42;;;;;;;9.23;1.90;;;;;;;6.42;72.08;99701.33;1823694;77;20942;-61
2022/05/15 01:49:09;;;;;;;9.70;1.82;;;;;;;6.42;72.18;99700.03;1821897;76;21480;-61
2022/05/15 01:51:39;;;;;;;7.60;1.42;;;;;;;6.42;72.54;99705.22;1760219;79;21572;-61
2022/05/15 01:54:07;;;;;;;8.30;1.82;;;;;;;6.40;72.13;99708.75;1799471;78;21829;-61
2022/05/15 01:56:34;;;;;;;12.15;1.90;;;;;;;6.34;72.09;99704.59;1757275;80;22062;-61
2022/05/15 01:59:01;;;;;;;15.63;2.75;;;;;;;6.30;72.15;99705.57;1762636;80;21540;-61
2022/05/15 02:01:27;;;;;;;4.83;1.52;;;;;;;6.26;72.24;99709.16;1777003;79;21709;-61
2022/05/15 02:03:54;;;;;;;10.68;1.95;;;;;;;6.21;72.27;99709.74;1766861;79;20997;-60
2022/05/15 02:06:21;;;;;;;8.33;1.97;;;;;;;6.18;72.34;99711.13;1763535;80;21573;-61
2022/05/15 02:08:48;;;;;;;7.37;1.73;;;;;;;6.13;72.35;99715.59;1795188;78;21594;-61
2022/05/15 02:11:15;;;;;;;6.92;2.37;;;;;;;6.09;72.47;99716.59;1763304;79;21768;-61
2022/05/15 02:13:42;;;;;;;9.15;2.33;;;;;;;6.05;72.54;99721.88;1762583;79;27720;-61
2022/05/15 02:16:09;;;;;;;7.12;1.77;;;;;;;6.02;72.78;99718.08;1771390;79;22130;-61
2022/05/15 02:18:36;;;;;;;9.93;2.08;;;;;;;5.97;72.72;99723.83;1762241;79;21700;-60
2022/05/15 02:21:02;;;;;;;4.92;1.72;;;;;;;5.93;72.74;99729.09;1769166;78;21927;-60
2022/05/15 02:23:29;;;;;;;6.42;1.62;;;;;;;5.89;72.87;99736.12;1765554;79;21606;-60
2022/05/15 02:25:56;;;;;;;8.80;1.47;;;;;;;5.86;72.91;99733.61;1762731;79;21487;-61
2022/05/15 02:28:23;;;;;;;11.03;2.13;;;;;;;5.83;72.94;99736.30;1767978;79;21596;-60
2022/05/15 02:30:50;;;;;;;9.17;2.20;;;;;;;5.81;73.07;99740.21;1767448;79;20946;-60
2022/05/15 02:33:18;;;;;;;7.17;1.52;;;;;;;5.78;73.05;99736.86;1766946;79;21092;-61
2022/05/15 02:35:44;;;;;;;;;;;;;;;5.77;73.28;99741.62;1768917;79;21013;-60
2022/05/15 02:38:11;;;;;;;9.38;2.02;;;;;;;5.81;73.63;99747.14;1776548;79;20215;-60
2022/05/15 02:40:38;;;;;;;6.90;1.80;;;;;;;5.81;73.52;99751.03;1766796;79;21030;-60
2022/05/15 02:43:06;;;;;;;5.72;1.72;;;;;;;5.83;73.60;99753.14;1764779;79;21090;-60
2022/05/15 02:45:33;;;;;;;6.47;1.45;;;;;;;5.84;73.71;99748.34;1766105;79;21291;-60
2022/05/15 02:47:59;;;;;;;9.78;1.95;;;;;;;5.89;73.78;99749.08;1768207;79;21562;-60
2022/05/15 02:53:01;;;;;;;7.42;2.33;;;;;;;5.96;73.83;99740.25;1701658;82;21151;-61
2022/05/15 02:55:28;;;;;;;10.70;2.12;;;;;;;6.01;73.81;99740.98;1710308;82;21109;-60
2022/05/15 02:57:54;;;;;;;7.30;1.57;;;;;;;6.07;73.92;99746.44;1706969;82;22223;-60
2022/05/15 03:00:25;;;;;;;9.50;1.70;;;;;;;6.14;74.01;99736.76;1718113;81;21723;-60
2022/05/15 03:02:52;;;;;;;14.80;1.80;;;;;;;6.21;74.16;99734.37;1685072;83;21124;-60
2022/05/15 03:05:21;;;;;;;4.58;1.50;;;;;;;6.28;74.18;99730.72;1719741;81;20994;-60
2022/05/15 03:07:49;;;;;;;10.10;1.80;;;;;;;6.37;74.21;99738.22;1718704;81;21076;-61
2022/05/15 03:10:19;;;;;;;5.50;1.72;;;;;;;6.56;74.42;99740.27;1718254;81;21668;-60
2022/05/15 03:12:46;;;;;;;12.20;1.65;;;;;;;7.02;74.68;99744.00;1723247;81;21129;-60
2022/05/15 03:15:15;;;;;;;5.83;1.50;;;;;;;7.60;74.68;99752.45;1711380;82;21069;-60
2022/05/15 03:17:43;;;;;;;7.78;1.92;;;;;;;8.21;74.33;99747.66;1700246;82;21227;-60
2022/05/15 03:20:13;;;;;;;4.67;1.52;;;;;;;8.96;74.69;99738.71;1694716;82;21184;-61
2022/05/15 03:22:39;;;;;;;6.60;1.40;;;;;;;9.81;74.51;99741.25;1702810;82;21069;-61
2022/05/15 03:25:08;;;;;;;6.05;1.70;;;;;;;10.58;74.04;99746.47;1718490;81;21143;-61
2022/05/15 03:27:35;;;;;;;6.15;1.90;;;;;;;11.23;73.63;99746.84;1711733;81;21601;-61
2022/05/15 03:30:05;;;;;;;5.33;1.75;;;;;;;11.78;73.51;99750.56;1738818;79;21020;-61
2022/05/15 03:32:33;;;;;;;9.68;1.90;;;;;;;11.95;72.60;99752.80;1768938;78;22364;-61
2022/05/15 03:34:59;;;;;;;6.15;1.40;;;;;;;12.06;72.40;99757.02;1770145;79;21879;-61
2022/05/15 03:37:26;;;;;;;9.10;2.05;;;;;;;12.21;72.38;99757.52;1760781;79;22537;-61
2022/05/15 03:39:54;;;;;;;7.90;1.72;;;;;;;12.29;71.91;99767.56;1765254;80;20998;-61
2022/05/15 03:42:22;;;;;;;10.60;2.25;;;;;;;12.19;71.55;99764.61;1767140;79;22016;-61
2022/05/15 03:44:49;;;;;;;5.03;1.27;;;;;;;11.82;71.14;99766.50;1760845;79;21617;-61
2022/05/15 03:47:16;;;;;;;6.25;1.47;;;;;;;11.55;71.32;99773.14;1764755;79;21874;-61
2022/05/15 03:49:42;;;;;;;7.00;1.75;;;;;;;11.39;71.99;99779.12;1761328;79;21055;-61
2022/05/15 03:52:09;;;;;;;5.70;1.67;;;;;;;11.22;71.79;99768.66;1772798;79;21108;-60
2022/05/15 03:54:36;;;;;;;6.30;1.45;;;;;;;11.14;72.16;99781.25;1761393;79;21049;-60
2022/05/15 03:57:05;;;;;;;6.97;1.67;;;;;;;11.03;72.15;99783.07;1763451;79;20950;-60
2022/05/15 03:59:38;;;;;;;8.95;2.30;;;;;;;10.94;72.33;99789.59;1768058;79;21128;-61
2022/05/15 04:02:07;;;;;;;9.40;2.10;;;;;;;10.84;72.11;99790.96;1761571;79;21345;-61
2022/05/15 04:04:37;;;;;;;8.38;1.42;;;;;;;10.71;72.24;99791.14;1753804;79;21014;-61
2022/05/15 04:07:04;;;;;;;5.70;2.00;;;;;;;10.57;72.12;99793.55;1763897;79;20946;-61
2022/05/15 04:09:33;;;;;;;10.18;1.52;;;;;;;10.39;72.13;99798.70;1764107;79;21018;-61
2022/05/15 04:12:00;;;;;;;5.90;1.42;;;;;;;10.20;72.02;99797.80;1756456;79;22039;-60
2022/05/15 04:14:27;;;;;;;6.33;2.22;;;;;;;9.93;71.56;99797.23;1798055;78;21018;-61
2022/05/15 04:16:54;;;;;;;9.28;2.12;;;;;;;9.60;71.83;99799.90;1797726;78;20930;-61
2022/05/15 04:19:21;;;;;;;6.67;1.82;;;;;;;9.45;72.27;99807.06;1763962;79;21082;-61
2022/05/15 04:21:49;;;;;;;6.67;1.53;;;;;;;9.28;72.22;99805.15;1775740;80;21073;-61
2022/05/15 04:24:18;;;;;;;5.90;1.50;;;;;;;9.14;72.42;99814.82;1755046;79;21943;-61
2022/05/15 04:26:46;;;;;;;5.15;1.42;;;;;;;9.11;72.66;99825.36;1803315;78;21681;-61
2022/05/15 04:29:18;;;;;;;5.40;1.62;;;;;;;9.14;72.81;99817.89;1782614;79;21404;-61
2022/05/15 04:31:45;;;;;;;7.60;2.45;;;;;;;9.02;72.83;99832.25;1739348;80;21583;-61
2022/05/15 04:34:12;;;;;;;6.03;2.27;;;;;;;8.87;72.75;99822.41;1758498;80;21075;-61
2022/05/15 04:36:38;;;;;;;6.53;1.82;;;;;;;8.81;72.96;99827.40;1753243;79;21783;-61
2022/05/15 04:39:06;;;;;;;6.70;2.20;;;;;;;8.84;73.09;99832.95;1759670;80;21463;-62
2022/05/15 04:41:33;;;;;;;7.80;1.80;;;;;;;8.86;73.18;99840.25;1793824;78;21592;-62
2022/05/15 04:44:00;;;;;;;8.35;2.10;;;;;;;8.77;73.59;99836.71;1802326;78;21133;-62
2022/05/15 04:46:29;;;;;;;8.65;1.82;;;;;;;8.76;73.61;99845.41;1788120;78;21085;-61
2022/05/15 04:49:01;;;;;;;4.95;1.42;;;;;;;8.77;73.68;99839.31;1758900;80;21947;-62
2022/05/15 04:51:28;;;;;;;6.20;1.80;;;;;;;8.73;73.75;99843.30;1790559;78;21093;-61
2022/05/15 04:53:58;;;;;;;5.78;1.52;;;;;;;8.70;73.76;99849.09;1796086;78;21482;-62
2022/05/15 04:56:25;;;;;;;6.12;1.65;;;;;;;8.66;74.43;99848.36;1783702;79;21586;-62
2022/05/15 04:58:55;;;;;;;4.83;1.20;;;;;;;8.68;74.44;99848.29;1769146;78;21052;-60
2022/05/15 05:01:25;;;;;;;7.42;2.02;;;;;;;8.78;74.32;99841.00;1753569;79;21156;-61
2022/05/15 05:03:57;;;;;;;7.10;1.70;;;;;;;8.81;74.26;99848.23;1766387;79;21040;-61
2022/05/15 05:06:26;;;;;;;8.95;2.15;;;;;;;8.85;74.35;99843.31;1773446;79;20985;-61
2022/05/15 05:08:55;;;;;;;5.92;1.65;;;;;;;8.95;74.37;99849.00;1764859;79;20988;-61
2022/05/15 05:11:22;;;;;;;7.42;1.98;;;;;;;8.90;75.15;99845.72;1766570;79;20985;-61
2022/05/15 05:13:49;;;;;;;6.58;1.67;;;;;;;8.90;74.53;99853.53;1765632;79;22423;-61
2022/05/15 05:16:17;;;;;;;8.60;1.70;;;;;;;8.98;74.94;99854.09;1777852;79;21117;-61
2022/05/15 05:18:44;;;;;;;5.53;1.85;;;;;;;9.05;74.59;99858.17;1769448;79;21011;-63
2022/05/15 05:21:10;;;;;;;6.23;1.73;;;;;;;9.10;74.64;99865.36;1768257;79;21270;-61
2022/05/15 05:23:37;;;;;;;7.77;1.80;;;;;;;9.15;74.68;99860.79;1778009;79;21660;-62
2022/05/15 05:26:04;;;;;;;9.13;1.60;;;;;;;9.25;74.73;99864.36;1771043;79;22334;-62
2022/05/15 05:28:31;;;;;;;7.45;1.42;;;;;;;9.40;74.75;99863.73;1768319;79;21059;-61
2022/05/15 05:31:52;;;;;;;7.78;1.82;;;;;;;9.46;75.13;99866.09;1848163;75;22665;-61
2022/05/15 05:34:19;;;;;;;10.35;2.10;;;;;;;9.44;74.83;99872.27;1807798;78;21645;-60
2022/05/15 05:36:49;;;;;;;9.05;2.12;;;;;;;9.52;74.58;99873.69;1812953;77;21083;-61
2022/05/15 05:39:17;;;;;;;8.23;1.80;;;;;;;9.48;74.89;99882.52;1812877;78;20963;-61
2022/05/15 05:41:44;;;;;;;5.60;1.70;;;;;;;9.37;74.61;99878.20;1812634;78;21585;-60
2022/05/15 05:44:11;;;;;;;7.30;2.00;;;;;;;9.31;75.05;99880.59;1811130;77;20999;-61
2022/05/15 05:46:40;;;;;;;6.95;1.52;;;;;;;9.30;74.81;99876.73;1812188;77;21621;-61
2022/05/15 05:49:07;;;;;;;9.53;2.25;;;;;;;9.38;74.95;99886.39;1816206;78;21903;-61
2022/05/15 05:51:34;;;;;;;10.05;2.27;;;;;;;9.41;74.85;99881.09;1813714;78;20927;-65
2022/05/15 05:54:01;;;;;;;8.48;2.35;;;;;;;9.43;74.83;99881.85;1814342;77;20955;-62
2022/05/15 05:56:28;;;;;;;9.25;2.65;;;;;;;9.51;74.83;99892.82;1815025;77;21103;-60
2022/05/15 05:58:55;;;;;;;10.73;2.10;;;;;;;9.57;74.99;99892.57;1805149;77;21494;-63
2022/05/15 06:01:23;;;;;;;8.45;2.65;;;;;;;9.71;74.91;99887.26;1809351;77;21228;-63
2022/05/15 06:06:35;;;;;;;5.97;1.65;;;;;;;9.72;74.90;99898.06;1805833;78;21006;-62
2022/05/15 06:09:03;;;;;;;5.85;1.60;;;;;;;9.72;74.90;99898.06;1807647;77;21552;-62
2022/05/15 06:11:30;;;;;;;13.15;3.35;;;;;;;9.76;74.71;99894.44;1816791;77;21660;-65
2022/05/15 06:13:58;;;;;;;8.55;1.70;;;;;;;9.80;74.78;99890.34;1810937;77;21087;-61
2022/05/15 06:16:25;;;;;;;;;;;;;;;9.90;74.70;99896.02;1815205;78;20944;-62
2022/05/15 06:18:55;;;;;;;6.72;1.67;;;;;;;10.03;74.90;99901.13;1817641;78;20148;-62
2022/05/15 06:21:21;;;;;;;6.00;1.50;;;;;;;10.20;74.83;99904.78;1817892;77;21012;-63
2022/05/15 06:23:48;;;;;;;5.80;1.97;;;;;;;10.20;74.83;99904.78;1814021;77;20974;-65
2022/05/15 06:26:15;;;;;;;6.92;2.00;;;;;;;10.38;74.66;99898.78;1817601;77;21423;-64
2022/05/15 06:28:41;;;;;;;6.97;2.27;;;;;;;10.56;74.43;99906.72;1812606;77;20985;-63
2022/05/15 06:31:08;;;;;;;8.50;2.47;;;;;;;10.63;74.67;99896.40;1818748;77;20915;-64
2022/05/15 06:33:35;;;;;;;7.60;2.10;;;;;;;10.87;74.66;99895.77;1812764;77;21587;-63
2022/05/15 06:36:02;;;;;;;9.33;1.80;;;;;;;11.09;74.55;99900.83;1746995;80;21096;-62
2022/05/15 06:38:30;;;;;;;6.65;2.08;;;;;;;11.45;74.46;99900.85;1783046;79;21542;-63
2022/05/15 06:40:57;;;;;;;6.42;1.90;;;;;;;11.81;74.82;99900.83;1781008;79;20990;-62
2022/05/15 06:43:24;;;;;;;4.80;1.75;;;;;;;12.05;73.81;99913.66;1782426;79;21472;-64
2022/05/15 06:45:51;;;;;;;;;;;;;;;12.13;73.53;99910.20;1781890;79;20957;-63
2022/05/15 06:48:18;;;;;;;5.67;2.10;;;;;;;12.32;73.90;99907.47;1755356;80;26590;-64
2022/05/15 06:50:44;;;;;;;4.70;1.72;;;;;;;12.30;72.73;99918.50;1766891;79;21910;-65
2022/05/15 06:53:16;;;;;;;12.33;2.15;;;;;;;12.26;72.90;99917.80;1770750;80;20986;-64
2022/05/15 06:58:29;;;;;;;5.10;1.37;;;;;;;12.66;72.51;99915.75;1780518;79;21091;-63
2022/05/15 07:00:56;;;;;;;7.37;1.90;;;;;;;12.67;72.72;99914.81;1776702;79;21515;-64
2022/05/15 07:03:23;;;;;;;6.78;2.35;;;;;;;12.77;72.09;99913.84;1785392;79;21423;-64
2022/05/15 07:05:50;;;;;;;4.80;1.62;;;;;;;13.14;73.18;99908.79;1783933;79;21069;-64
2022/05/15 07:08:18;;;;;;;4.08;1.67;;;;;;;13.61;72.68;99918.45;1780163;79;21004;-62
2022/05/15 07:10:45;;;;;;;4.92;1.70;;;;;;;13.76;72.63;99913.25;1764814;79;21077;-63
2022/05/15 07:13:12;;;;;;;;;;;;;;;14.36;73.25;99913.20;1764746;80;20984;-63
2022/05/15 07:15:39;;;;;;;5.00;1.65;;;;;;;15.34;71.89;99906.31;1760358;80;22028;-64
2022/05/15 07:18:06;;;;;;;;;;;;;;;15.41;69.88;99908.94;1761231;80;21051;-62
2022/05/15 07:20:33;;;;;;;5.97;1.60;;;;;;;15.47;69.24;99914.28;1763349;79;20223;-62
2022/05/15 07:23:04;;;;;;;;;;;;;;;15.45;70.04;99917.84;1768667;80;20995;-62
2022/05/15 07:25:33;;;;;;;9.68;2.75;;;;;;;15.42;70.04;99912.77;1761694;80;20283;-62
2022/05/15 07:28:01;;;;;;;7.42;2.30;;;;;;;15.37;70.14;99906.95;1763582;79;21128;-61
2022/05/15 07:30:27;;;;;;;4.78;1.35;;;;;;;15.39;70.03;99912.14;1763060;80;21105;-63
2022/05/15 07:32:54;;;;;;;6.22;1.82;;;;;;;15.40;69.60;99912.05;1764043;80;21531;-62
2022/05/15 07:35:21;;;;;;;8.43;1.72;;;;;;;15.29;69.56;99916.28;1761503;80;20942;-61
2022/05/15 07:37:48;;;;;;;6.87;1.80;;;;;;;15.17;68.07;99915.28;1761893;79;21098;-62
2022/05/15 07:40:15;;;;;;;7.35;1.80;;;;;;;14.71;67.86;99915.53;1759724;80;21077;-62
2022/05/15 07:42:43;;;;;;;5.03;2.10;;;;;;;14.52;68.54;99919.27;1759125;79;20934;-62
2022/05/15 07:45:11;;;;;;;7.62;1.75;;;;;;;14.85;68.77;99918.63;1760892;80;20948;-63
2022/05/15 07:47:38;;;;;;;7.50;2.58;;;;;;;15.19;67.87;99926.56;1763770;80;21043;-62
2022/05/15 07:50:07;;;;;;;8.78;1.47;;;;;;;15.03;67.76;99931.09;1768829;79;21100;-61
2022/05/15 07:52:35;;;;;;;9.63;2.20;;;;;;;14.98;67.43;99926.11;1758951;79;21122;-62
2022/05/15 07:55:03;;;;;;;8.98;1.98;;;;;;;15.22;68.15;99927.68;1764040;79;21120;-62
2022/05/15 07:57:29;;;;;;;6.37;1.65;;;;;;;15.51;67.67;99921.02;1759984;80;21065;-62
2022/05/15 07:59:56;;;;;;;6.28;1.87;;;;;;;15.65;65.25;99932.81;1761439;80;21085;-62
2022/05/15 08:02:27;;;;;;;5.55;1.72;;;;;;;15.33;65.14;99931.79;1766571;80;21010;-63
2022/05/15 08:08:01;;;;;;;3.98;1.27;;;;;;;15.23;63.99;99933.30;1756628;80;20993;-63
2022/05/15 08:10:32;;;;;;;6.78;1.47;;;;;;;14.95;62.15;99937.66;1760420;79;21012;-62
2022/05/15 08:13:15;;;;;;;6.40;1.40;;;;;;;14.55;61.35;99945.35;1759294;80;21135;-61
2022/05/15 08:16:04;;;;;;;11.55;2.45;;;;;;;14.39;64.51;99943.70;1760026;79;21089;-65
2022/05/15 08:24:06;;;;;;;5.10;1.43;;;;;;;15.71;65.33;99941.69;1666882;84;21595;-61
2022/05/15 08:26:34;;;;;;;7.10;1.57;;;;;;;16.15;65.16;99940.52;1683824;83;21107;-61
2022/05/15 08:29:21;;;;;;;4.97;1.67;;;;;;;16.62;64.95;99936.45;1658308;85;21051;-61
2022/05/15 08:31:48;;;;;;;5.75;1.95;;;;;;;16.81;64.25;99939.18;1709369;82;21538;-62
2022/05/15 08:34:15;;;;;;;5.83;1.40;;;;;;;16.99;64.56;99944.47;1697830;83;21598;-61
2022/05/15 08:36:44;;;;;;;;;;;;;;;17.17;63.41;99935.27;1711979;82;21078;-62
2022/05/15 08:39:12;;;;;;;6.97;2.00;;;;;;;16.91;62.85;99943.68;1718481;82;20126;-61
2022/05/15 08:41:56;;;;;;;4.92;1.47;;;;;;;16.69;62.31;99939.50;1706531;82;21706;-61
2022/05/15 08:44:29;;;;;;;4.22;1.47;;;;;;;16.46;62.79;99943.72;1707086;82;21596;-62
2022/05/15 08:47:12;;;;;;;4.35;1.30;;;;;;;16.50;61.90;99939.95;1748565;80;21156;-61
2022/05/15 08:49:49;;;;;;;3.70;1.40;;;;;;;16.50;62.67;99945.22;1730068;80;29692;-61
2022/05/15 08:52:51;;;;;;;2.87;1.27;;;;;;;16.43;62.09;99951.84;1709749;82;21003;-61
2022/05/15 08:55:39;;;;;;;7.50;1.70;;;;;;;16.20;61.39;99948.97;1712913;82;21008;-60
2022/05/15 08:58:43;;;;;;;2.90;1.00;;;;;;;16.26;62.34;99948.55;1679810;83;21125;-60
2022/05/15 09:01:13;;;;;;;7.42;1.50;;;;;;;16.67;61.08;99956.76;1713655;82;21525;-60
2022/05/15 09:03:40;;;;;;;5.33;1.35;;;;;;;17.18;62.14;99956.73;1714489;82;21587;-60
2022/05/15 09:06:12;;;;;;;6.15;1.92;;;;;;;17.47;61.41;99952.47;1709196;82;21108;-62
2022/05/15 09:09:12;;;;;;;3.70;1.30;;;;;;;17.60;61.24;99951.95;1705053;82;21035;-61
2022/05/15 09:11:47;;;;;;;3.22;1.27;;;;;;;17.86;61.30;99949.23;1714246;82;21122;-61
2022/05/15 09:14:36;;;;;;;8.18;1.70;;;;;;;17.66;59.39;99944.90;1717286;82;21551;-62
2022/05/15 09:17:31;;;;;;;6.00;1.25;;;;;;;17.37;59.90;99954.11;1714952;82;21076;-63
2022/05/15 09:20:04;;;;;;;5.12;1.60;;;;;;;17.51;59.70;99953.95;1714911;82;21021;-62
2022/05/15 09:22:43;;;;;;;4.12;1.70;;;;;;;17.72;60.03;99952.85;1711632;82;21114;-61
2022/05/15 09:25:19;;;;;;;4.83;1.67;;;;;;;17.96;59.50;99956.84;1707842;82;21138;-60
2022/05/15 09:28:12;;;;;;;3.33;1.30;;;;;;;17.51;56.50;99947.35;1719172;82;21128;-60
2022/05/15 09:30:49;;;;;;;7.83;1.60;;;;;;;16.86;57.59;99947.14;1706032;82;21056;-61
2022/05/15 09:33:30;;;;;;;7.60;1.75;;;;;;;17.16;59.07;99940.16;1687777;83;21036;-61
2022/05/15 09:36:31;;;;;;;5.65;1.60;;;;;;;17.37;58.09;99954.11;1693702;83;21780;-61
2022/05/15 09:39:14;;;;;;;3.10;0.90;;;;;;;17.21;57.77;99955.19;1696275;83;21861;-62
2022/05/15 09:44:37;;;;;;;7.05;1.40;;;;;;;17.41;57.55;99960.84;1562904;91;22512;-61
2022/05/15 09:47:31;;;;;;;3.55;1.02;;;;;;;17.61;57.45;99954.95;1561522;91;21080;-61
2022/05/15 09:49:58;;;;;;;;;;;;;;;17.68;57.23;99956.20;1540704;92;61884;-61
2022/05/15 09:52:31;;;;;;;4.75;1.25;;;;;;;17.64;56.52;99967.95;1560949;91;21532;-61
2022/05/15 09:55:25;;;;;;;3.00;0.78;;;;;;;17.30;54.87;99971.32;1551454;91;21102;-61
2022/05/15 09:58:00;;;;;;;6.45;1.12;;;;;;;16.96;54.07;99978.97;1560960;89;21273;-60
2022/05/15 10:00:32;;;;;;;4.90;1.35;;;;;;;16.46;55.60;99975.34;1539164;91;21266;-61
2022/05/15 10:03:23;;;;;;;7.00;1.20;;;;;;;16.73;55.89;99981.38;1592992;88;21158;-60
2022/05/15 10:06:02;;;;;;;6.05;1.30;;;;;;;17.07;56.31;99969.84;1570512;90;21224;-61
2022/05/15 10:08:30;;;;;;;4.53;1.25;;;;;;;17.35;55.79;99968.72;1571889;90;21147;-61
2022/05/15 10:11:02;;;;;;;5.28;1.50;;;;;;;16.96;54.83;99977.66;1541101;90;21182;-61
2022/05/15 10:13:37;;;;;;;3.55;1.10;;;;;;;16.91;55.30;99981.08;1542412;90;21666;-62
2022/05/15 10:16:22;;;;;;;5.42;1.45;;;;;;;16.46;53.12;99980.62;1565628;91;22447;-63
2022/05/15 10:19:32;;;;;;;4.75;1.50;;;;;;;16.31;54.50;99979.87;1604292;86;21612;-60
2022/05/15 10:22:18;;;;;;;3.08;0.98;;;;;;;16.76;55.04;99971.97;1582182;88;21743;-60
2022/05/15 10:24:47;;;;;;;2.08;0.90;;;;;;;16.70;52.71;99983.39;1570177;90;21294;-61
2022/05/15 10:27:22;;;;;;;3.12;0.95;;;;;;;16.08;51.01;99994.57;1569679;89;21085;-62
2022/05/15 10:30:08;;;;;;;6.45;1.32;;;;;;;16.13;53.79;99981.91;1572817;90;21118;-61
2022/05/15 10:32:50;;;;;;;2.40;1.12;;;;;;;16.80;54.53;99973.08;1562948;91;21377;-61
2022/05/15 10:35:19;;;;;;;3.67;1.07;;;;;;;17.30;52.99;99979.23;1571812;90;21250;-61
2022/05/15 10:38:09;;;;;;;2.75;1.00;;;;;;;17.40;53.97;99976.32;1575604;90;21714;-61
2022/05/15 10:40:56;;;;;;;3.70;1.02;;;;;;;17.54;54.12;99980.13;1491172;95;21855;-62
2022/05/15 10:43:44;;;;;;;1.35;0.70;;;;;;;17.40;52.58;99982.92;1497868;94;21250;-61
2022/05/15 10:46:33;;;;;;;1.90;0.93;;;;;;;17.27;52.51;99983.42;1499786;94;23014;-61
2022/05/15 10:49:34;;;;;;;6.33;1.20;;;;;;;16.58;51.59;99987.72;1496130;95;21805;-61
2022/05/15 10:52:39;;;;;;;5.22;1.47;;;;;;;16.21;51.37;99987.52;1461068;96;21245;-61
2022/05/15 10:58:49;;;;;;;4.58;1.00;;;;;;;15.66;52.62;99986.69;1448391;96;21264;-62
2022/05/15 11:01:37;;;;;;;4.12;1.00;;;;;;;16.01;52.54;99995.91;1442641;93;21195;-62
2022/05/15 11:04:22;;;;;;;4.05;1.05;;;;;;;16.30;52.89;99992.20;1511685;93;21144;-61
2022/05/15 11:07:09;;;;;;;3.55;1.20;;;;;;;16.10;51.53;99998.80;1494715;94;21187;-61
2022/05/15 11:10:04;;;;;;;2.85;0.80;;;;;;;15.72;52.12;99990.75;1492907;94;21286;-62
2022/05/15 11:12:45;;;;;;;4.58;0.82;;;;;;;15.92;52.33;99996.52;1486927;94;21164;-61
2022/05/15 11:15:47;;;;;;;3.15;0.80;;;;;;;15.88;50.95;99990.61;1483851;94;21983;-61
2022/05/15 11:18:52;;;;;;;4.62;1.35;;;;;;;15.70;51.01;99987.36;1580214;89;21243;-60
2022/05/15 11:21:27;;;;;;;2.90;1.12;;;;;;;15.74;51.54;99986.23;1569384;88;21151;-61
2022/05/15 11:24:01;;;;;;;6.33;2.02;;;;;;;15.24;51.47;99994.20;1559295;90;21419;-62
2022/05/15 11:26:51;;;;;;;3.92;1.20;;;;;;;15.08;52.03;99997.39;1583110;88;21133;-61
2022/05/15 11:29:21;;;;;;;4.20;1.10;;;;;;;15.21;52.54;99993.91;1613115;87;21808;-61
2022/05/15 11:31:55;;;;;;;3.25;1.35;;;;;;;15.36;52.20;100003.94;1638875;85;21124;-61
2022/05/15 11:35:00;;;;;;;2.10;0.90;;;;;;;15.28;52.18;99999.63;1651763;85;21116;-61
2022/05/15 11:37:54;;;;;;;2.50;1.05;;;;;;;15.07;52.26;100011.46;1630822;85;21119;-61
2022/05/15 11:40:46;;;;;;;2.95;1.00;;;;;;;15.06;52.46;100005.84;1621169;84;20965;-60
2022/05/15 11:43:33;;;;;;;4.12;1.30;;;;;;;15.05;52.51;100000.22;1657755;84;21087;-61
2022/05/15 11:46:10;;;;;;;5.00;1.30;;;;;;;15.06;52.98;100005.36;1636141;85;21159;-61
2022/05/15 11:48:53;;;;;;;2.83;0.95;;;;;;;15.51;52.89;100003.91;1621407;85;21045;-61
2022/05/15 11:51:34;;;;;;;7.72;1.52;;;;;;;15.44;52.48;100004.31;1649991;84;39128;-61
2022/05/15 11:54:42;;;;;;;5.08;1.00;;;;;;;15.35;52.76;100004.05;1653050;84;21021;-61
2022/05/15 11:57:13;;;;;;;3.47;1.15;;;;;;;15.39;52.23;100010.33;1609244;87;21327;-62
2022/05/15 11:59:52;;;;;;;2.47;1.10;;;;;;;15.11;52.44;100013.83;1618941;86;21000;-60
2022/05/15 12:02:33;;;;;;;3.27;1.30;;;;;;;14.66;52.43;100007.78;1638840;86;21575;-61
2022/05/15 12:05:33;;;;;;;3.45;1.40;;;;;;;14.39;52.81;100002.33;1624798;86;21108;-61
2022/05/15 12:08:31;;;;;;;6.25;1.65;;;;;;;14.46;53.25;100007.62;1639363;85;21207;-61
2022/05/15 12:11:14;;;;;;;2.12;1.10;;;;;;;14.55;53.45;100009.73;1626432;86;21107;-61
2022/05/15 12:13:42;;;;;;;3.85;1.12;;;;;;;14.72;53.48;100007.88;1619072;87;21069;-63
2022/05/15 12:16:32;;;;;;;6.83;1.50;;;;;;;14.84;53.49;100005.82;1624407;87;21077;-62
2022/05/15 12:19:04;;;;;;;4.42;1.20;;;;;;;15.14;53.84;100012.80;1639677;86;21077;-61
2022/05/15 12:21:43;;;;;;;3.05;1.20;;;;;;;15.02;53.13;100005.67;1625486;86;21177;-61
2022/05/15 12:24:33;;;;;;;4.12;1.80;;;;;;;14.68;53.24;100007.70;1625827;86;22548;-61
2022/05/15 12:27:11;;;;;;;4.12;1.65;;;;;;;14.41;53.62;100009.66;1645876;85;21077;-60
2022/05/15 12:30:16;;;;;;;4.70;2.05;;;;;;;14.13;53.93;100009.58;1639655;87;21035;-61
2022/05/15 12:32:48;;;;;;;4.10;1.40;;;;;;;14.08;54.38;100011.14;1614399;85;21123;-62
2022/05/15 12:35:20;;;;;;;4.95;1.15;;;;;;;14.54;53.82;100013.30;1675826;85;20938;-62
2022/05/15 12:38:07;;;;;;;3.52;1.30;;;;;;;14.55;53.71;100003.16;1669273;85;21484;-62
2022/05/15 12:40:43;;;;;;;4.47;1.05;;;;;;;14.54;53.76;100008.05;1644350;85;21193;-60
2022/05/15 12:43:48;;;;;;;3.55;1.25;;;;;;;14.26;53.63;100010.57;1644233;85;21234;-61
2022/05/15 12:46:02;;;;;;;3.05;1.20;;;;;;;14.06;53.79;100007.31;1637679;87;21055;-63
2022/05/15 12:48:29;;;;;;;3.55;1.30;;;;;;;14.03;53.86;100012.73;1644777;86;21604;-62
2022/05/15 12:51:06;;;;;;;4.55;1.65;;;;;;;13.83;54.12;100014.31;1655016;84;21693;-61
2022/05/15 12:53:46;;;;;;;7.77;1.10;;;;;;;13.76;54.49;100006.41;1673800;84;21040;-62
2022/05/15 12:56:31;;;;;;;5.67;1.17;;;;;;;14.00;54.54;100005.04;1642701;85;21878;-61
2022/05/15 12:59:03;;;;;;;4.62;1.32;;;;;;;14.13;53.97;100013.52;1639895;87;21651;-62
2022/05/15 13:01:32;;;;;;;5.58;1.25;;;;;;;14.48;54.57;100004.44;1642366;87;20953;-61
2022/05/15 13:04:03;;;;;;;2.80;1.10;;;;;;;14.70;54.50;100008.44;1645728;87;21994;-61
2022/05/15 13:06:38;;;;;;;4.25;1.10;;;;;;;14.90;53.57;100010.73;1675663;84;21606;-61
2022/05/15 13:12:00;;;;;;;3.52;1.17;;;;;;;14.83;53.64;100013.81;1618431;87;21564;-61